createdAt,value
2023-03-06T00:02:07.859Z,1.05
2023-03-06T00:06:30.382Z,1.04
2023-03-06T00:10:43.072Z,1.10
2023-03-06T00:14:55.526Z,1.10
2023-03-06T00:19:08.102Z,1.03
2023-03-06T00:23:20.628Z,1.02
2023-03-06T00:27:39.591Z,1.06
2023-03-06T00:31:55.699Z,0.96
2023-03-06T00:36:08.655Z,1.03
2023-03-06T00:40:22.842Z,0.99
2023-03-06T00:44:35.339Z,0.90
2023-03-06T00:48:47.964Z,1.09
2023-03-06T00:53:00.463Z,0.95
2023-03-06T00:57:13.342Z,0.97
2023-03-06T01:01:25.790Z,0.94
2023-03-06T01:05:46.192Z,1.01
2023-03-06T01:10:09.846Z,0.99
2023-03-06T01:14:22.774Z,0.94
2023-03-06T01:18:44.019Z,0.95
2023-03-06T01:22:57.407Z,0.92
2023-03-06T01:27:09.902Z,0.95
2023-03-06T01:31:22.396Z,0.88
2023-03-06T01:35:34.829Z,0.85
2023-03-06T01:39:47.583Z,0.87
2023-03-06T01:44:00.120Z,0.90
2023-03-06T01:48:12.606Z,0.89
2023-03-06T01:52:31.081Z,0.86
2023-03-06T01:56:55.328Z,0.86
2023-03-06T02:01:15.432Z,0.71
2023-03-06T02:05:29.379Z,0.71
2023-03-06T02:09:41.857Z,0.76
2023-03-06T02:13:55.742Z,0.71
2023-03-06T02:18:08.305Z,0.76
2023-03-06T02:22:21.904Z,0.76
2023-03-06T02:26:35.656Z,0.77
2023-03-06T02:30:52.118Z,0.78
2023-03-06T02:35:05.400Z,0.74
2023-03-06T02:39:31.002Z,0.83
2023-03-06T02:43:46.768Z,0.83
2023-03-06T02:48:00.277Z,0.84
2023-03-06T02:52:12.874Z,0.73
2023-03-06T02:56:25.443Z,0.57
2023-03-06T03:00:40.189Z,0.62
2023-03-06T03:04:52.803Z,0.52
2023-03-06T03:09:05.399Z,0.45
2023-03-06T03:13:18.587Z,0.37
2023-03-06T03:17:31.425Z,0.30
2023-03-06T03:21:43.999Z,0.37
2023-03-06T03:25:56.442Z,0.29
2023-03-06T03:30:10.337Z,0.43
2023-03-06T03:34:23.408Z,0.28
2023-03-06T03:38:36.575Z,0.24
2023-03-06T03:42:49.045Z,0.08
2023-03-06T03:47:01.587Z,0.13
2023-03-06T03:51:17.316Z,0.16
2023-03-06T03:55:30.606Z,0.20
2023-03-06T03:59:43.037Z,0.22
2023-03-06T04:03:55.483Z,0.26
2023-03-06T04:08:08.154Z,0.31
2023-03-06T04:12:20.578Z,0.25
2023-03-06T04:16:33.099Z,0.21
2023-03-06T04:20:46.973Z,0.30
2023-03-06T04:24:59.452Z,0.31
2023-03-06T04:29:11.915Z,0.21
2023-03-06T04:33:34.519Z,0.33
2023-03-06T04:37:47.082Z,0.45
2023-03-06T04:41:59.535Z,0.35
2023-03-06T04:46:12.197Z,0.41
2023-03-06T04:50:26.239Z,0.42
2023-03-06T04:54:38.700Z,0.38
2023-03-06T04:58:51.454Z,0.41
2023-03-06T05:03:03.981Z,0.43
2023-03-06T05:07:16.418Z,0.44
2023-03-06T05:11:28.998Z,0.38
2023-03-06T05:15:41.693Z,0.40
2023-03-06T05:19:54.260Z,0.41
2023-03-06T05:24:07.030Z,0.42
2023-03-06T05:28:19.719Z,0.43
2023-03-06T05:32:34.461Z,0.48
2023-03-06T05:36:48.357Z,0.39
2023-03-06T05:41:00.805Z,0.43
2023-03-06T05:45:13.471Z,0.43
2023-03-06T05:49:26.162Z,0.40
2023-03-06T05:53:38.712Z,0.34
2023-03-06T05:58:01.163Z,0.44
2023-03-06T06:02:13.695Z,0.48
2023-03-06T06:06:26.500Z,0.59
2023-03-06T06:10:40.413Z,0.72
2023-03-06T06:15:02.823Z,0.87
2023-03-06T06:19:19.499Z,0.98
2023-03-06T06:23:31.906Z,1.09
2023-03-06T06:27:44.566Z,1.23
2023-03-06T06:31:57.552Z,1.30
2023-03-06T06:36:20.685Z,1.39
2023-03-06T06:40:33.123Z,1.47
2023-03-06T06:44:45.773Z,1.51
2023-03-06T06:48:59.415Z,1.64
2023-03-06T06:53:11.892Z,1.68
2023-03-06T06:57:24.401Z,1.85
2023-03-06T07:01:36.958Z,1.85
2023-03-06T07:05:56.788Z,1.98
2023-03-06T07:10:15.915Z,2.24
2023-03-06T07:14:28.400Z,2.32
2023-03-06T07:18:41.108Z,2.38
2023-03-06T07:22:53.512Z,2.52
2023-03-06T07:27:06.037Z,2.78
2023-03-06T07:31:18.589Z,2.96
2023-03-06T07:35:43.245Z,3.32
2023-03-06T07:39:55.722Z,3.26
2023-03-06T07:44:08.230Z,3.60
2023-03-06T07:48:20.666Z,3.72
2023-03-06T07:52:33.140Z,3.89
2023-03-06T07:56:45.582Z,4.03
2023-03-06T08:00:58.042Z,4.58
2023-03-06T08:05:15.398Z,4.07
2023-03-06T08:09:28.390Z,4.03
2023-03-06T08:13:41.229Z,3.90
2023-03-06T08:17:54.505Z,3.86
2023-03-06T08:22:07.813Z,3.68
2023-03-06T08:26:26.076Z,3.58
2023-03-06T08:30:38.638Z,3.93
2023-03-06T08:34:51.164Z,3.97
2023-03-06T08:39:04.892Z,3.80
2023-03-06T08:43:17.387Z,3.96
2023-03-06T08:47:29.866Z,3.87
2023-03-06T08:51:43.234Z,3.83
2023-03-06T08:55:55.656Z,3.71
2023-03-06T09:00:11.704Z,4.25
2023-03-06T09:04:24.188Z,3.90
2023-03-06T09:08:36.895Z,4.45
2023-03-06T09:12:52.509Z,4.62
2023-03-06T09:17:06.308Z,4.05
2023-03-06T09:21:18.819Z,4.63
2023-03-06T09:25:31.335Z,5.20
2023-03-06T09:29:43.797Z,4.58
2023-03-06T09:33:56.269Z,4.99
2023-03-06T09:38:08.786Z,4.73
2023-03-06T09:42:24.486Z,5.09
2023-03-06T09:46:58.318Z,5.20
2023-03-06T09:51:17.987Z,5.59
2023-03-06T09:55:39.371Z,5.39
2023-03-06T09:59:57.725Z,5.19
2023-03-06T10:04:28.391Z,5.67
2023-03-06T10:08:56.118Z,5.95
2023-03-06T10:13:33.816Z,5.76
2023-03-06T10:17:52.670Z,5.30
2023-03-06T10:22:20.594Z,5.17
2023-03-06T10:26:48.076Z,5.61
2023-03-06T10:31:25.099Z,5.69
2023-03-06T10:35:50.333Z,5.77
2023-03-06T10:40:17.179Z,5.34
2023-03-06T10:44:29.689Z,5.04
2023-03-06T10:48:43.293Z,4.81
2023-03-06T10:53:06.584Z,4.85
2023-03-06T10:57:29.798Z,4.95
2023-03-06T11:01:55.534Z,4.87
2023-03-06T11:06:35.328Z,4.97
2023-03-06T11:11:01.971Z,4.67
2023-03-06T11:15:22.713Z,4.53
2023-03-06T11:19:35.238Z,4.54
2023-03-06T11:23:48.264Z,4.58
2023-03-06T11:28:13.502Z,4.92
2023-03-06T11:32:34.332Z,4.54
2023-03-06T11:37:11.107Z,5.01
2023-03-06T11:41:26.607Z,4.79
2023-03-06T11:46:07.077Z,5.04
2023-03-06T11:50:42.244Z,4.57
2023-03-06T11:54:58.471Z,4.40
2023-03-06T11:59:36.462Z,4.30
2023-03-06T12:04:06.942Z,4.11
2023-03-06T12:08:57.323Z,3.97
2023-03-06T12:13:28.503Z,4.39
2023-03-06T12:17:53.985Z,4.44
2023-03-06T12:23:02.549Z,4.07
2023-03-06T12:27:30.620Z,4.23
2023-03-06T12:32:17.668Z,4.55
2023-03-06T12:37:02.310Z,4.63
2023-03-06T12:41:39.382Z,5.09
2023-03-06T12:45:58.998Z,4.96
2023-03-06T12:50:32.860Z,4.94
2023-03-06T12:54:45.363Z,5.25
2023-03-06T12:59:03.014Z,5.19
2023-03-06T13:04:02.808Z,5.93
2023-03-06T13:08:47.318Z,5.71
2023-03-06T13:13:02.821Z,4.98
2023-03-06T13:17:21.231Z,5.28
2023-03-06T13:21:42.754Z,4.89
2023-03-06T13:26:00.458Z,5.04
2023-03-06T13:30:24.350Z,5.39
2023-03-06T13:34:42.425Z,4.83
2023-03-06T13:39:01.642Z,4.57
2023-03-06T13:43:22.208Z,4.89
2023-03-06T13:48:21.164Z,5.10
2023-03-06T13:52:44.952Z,5.08
2023-03-06T13:57:39.207Z,4.36
2023-03-06T14:02:06.073Z,4.82
2023-03-06T14:06:36.431Z,4.83
2023-03-06T14:11:01.275Z,4.86
2023-03-06T14:15:24.803Z,4.82
2023-03-06T14:19:39.397Z,4.81
2023-03-06T14:24:04.840Z,4.85
2023-03-06T14:28:33.045Z,4.50
2023-03-06T14:32:46.013Z,4.77
2023-03-06T14:37:08.643Z,4.78
2023-03-06T14:41:27.961Z,4.94
2023-03-06T14:45:58.013Z,5.06
2023-03-06T14:50:31.689Z,4.82
2023-03-06T14:54:45.708Z,4.86
2023-03-06T14:59:04.509Z,4.96
2023-03-06T15:03:37.117Z,5.06
2023-03-06T15:07:51.454Z,5.16
2023-03-06T15:12:09.268Z,4.76
2023-03-06T15:16:21.602Z,4.96
2023-03-06T15:21:08.500Z,4.69
2023-03-06T15:25:30.774Z,4.70
2023-03-06T15:29:43.235Z,4.70
2023-03-06T15:34:15.399Z,4.70
2023-03-06T15:38:44.352Z,4.70
2023-03-06T15:43:00.640Z,4.33
2023-03-06T15:47:13.243Z,4.53
2023-03-06T15:51:26.235Z,4.31
2023-03-06T15:55:39.378Z,4.27
2023-03-06T15:59:52.554Z,4.35
2023-03-06T16:04:05.048Z,4.19
2023-03-06T16:08:17.751Z,4.47
2023-03-06T16:12:31.598Z,4.41
2023-03-06T16:16:44.235Z,4.33
2023-03-06T16:20:57.453Z,4.34
2023-03-06T16:25:10.478Z,4.30
2023-03-06T16:29:28.195Z,4.17
2023-03-06T16:33:40.947Z,4.11
2023-03-06T16:37:55.677Z,4.11
2023-03-06T16:42:08.160Z,3.99
2023-03-06T16:46:26.153Z,4.00
2023-03-06T16:50:41.127Z,3.98
2023-03-06T16:54:53.719Z,3.84
2023-03-06T16:59:06.316Z,3.72
2023-03-06T17:03:18.874Z,3.47
2023-03-06T17:07:34.689Z,3.10
2023-03-06T17:11:47.635Z,3.19
2023-03-06T17:16:02.456Z,3.09
2023-03-06T17:20:15.945Z,3.01
2023-03-06T17:24:28.874Z,2.92
2023-03-06T17:28:41.578Z,3.06
2023-03-06T17:32:54.644Z,2.99
2023-03-06T17:37:07.699Z,3.05
2023-03-06T17:41:20.374Z,2.97
2023-03-06T17:45:35.037Z,2.92
2023-03-06T17:49:47.805Z,2.95
2023-03-06T17:54:00.302Z,2.88
2023-03-06T17:58:12.938Z,2.85
2023-03-06T18:02:25.452Z,2.92
2023-03-06T18:06:44.088Z,2.83
2023-03-06T18:11:01.567Z,2.84
2023-03-06T18:15:14.063Z,2.82
2023-03-06T18:19:26.554Z,2.78
2023-03-06T18:23:40.952Z,2.74
2023-03-06T18:27:53.576Z,2.87
2023-03-06T18:32:06.383Z,2.81
2023-03-06T18:36:20.054Z,2.86
2023-03-06T18:40:32.545Z,2.68
2023-03-06T18:44:48.567Z,2.75
2023-03-06T18:49:01.734Z,2.54
2023-03-06T18:53:14.180Z,2.43
2023-03-06T18:57:30.217Z,2.35
2023-03-06T19:01:48.158Z,2.40
2023-03-06T19:06:06.790Z,2.35
2023-03-06T19:10:19.383Z,2.20
2023-03-06T19:14:31.945Z,2.19
2023-03-06T19:18:44.402Z,2.11
2023-03-06T19:22:56.909Z,1.97
2023-03-06T19:27:09.463Z,2.11
2023-03-06T19:31:26.666Z,2.09
2023-03-06T19:35:39.241Z,2.09
2023-03-06T19:39:51.775Z,2.08
2023-03-06T19:44:06.506Z,1.99
2023-03-06T19:48:20.164Z,1.94
2023-03-06T19:52:37.787Z,1.93
2023-03-06T19:56:50.299Z,1.95
2023-03-06T20:01:13.024Z,1.99
2023-03-06T20:05:25.513Z,1.95
2023-03-06T20:09:38.060Z,1.98
2023-03-06T20:13:51.047Z,1.90
2023-03-06T20:18:08.196Z,1.81
2023-03-06T20:22:20.758Z,1.95
2023-03-06T20:26:34.954Z,1.92
2023-03-06T20:30:47.425Z,1.84
2023-03-06T20:35:00.161Z,1.88
2023-03-06T20:39:16.610Z,1.89
2023-03-06T20:43:29.140Z,1.81
2023-03-06T20:47:47.592Z,1.86
2023-03-06T20:52:00.137Z,1.75
2023-03-06T20:56:15.091Z,2.05
2023-03-06T21:00:27.585Z,2.01
2023-03-06T21:04:41.721Z,2.04
2023-03-06T21:08:54.201Z,2.07
2023-03-06T21:13:06.699Z,2.10
2023-03-06T21:17:19.619Z,2.09
2023-03-06T21:21:35.481Z,2.14
2023-03-06T21:25:50.835Z,2.22
2023-03-06T21:30:14.209Z,1.52
2023-03-06T21:34:26.715Z,2.36
2023-03-06T21:38:39.480Z,2.38
2023-03-06T21:42:52.269Z,2.33
2023-03-06T21:47:04.866Z,2.52
2023-03-06T21:51:20.506Z,2.38
2023-03-06T21:55:33.078Z,2.46
2023-03-06T21:59:45.528Z,2.25
2023-03-06T22:03:59.234Z,2.43
2023-03-06T22:08:11.745Z,2.35
2023-03-06T22:12:24.230Z,2.36
2023-03-06T22:16:36.739Z,2.31
2023-03-06T22:20:49.323Z,2.23
2023-03-06T22:25:02.107Z,2.41
2023-03-06T22:29:14.566Z,2.39
2023-03-06T22:33:27.014Z,2.56
2023-03-06T22:37:39.498Z,2.43
2023-03-06T22:41:52.168Z,2.34
2023-03-06T22:46:11.085Z,2.33
2023-03-06T22:50:23.584Z,2.07
2023-03-06T22:54:36.596Z,2.10
2023-03-06T22:58:49.518Z,2.10
2023-03-06T23:03:02.167Z,2.05
2023-03-06T23:07:14.597Z,2.11
2023-03-06T23:11:30.068Z,2.07
2023-03-06T23:15:51.433Z,1.97
2023-03-06T23:20:10.765Z,1.97
2023-03-06T23:24:23.210Z,1.93
2023-03-06T23:28:35.933Z,1.95
2023-03-06T23:32:49.267Z,1.51
2023-03-06T23:37:01.878Z,1.86
2023-03-06T23:41:18.836Z,1.81
2023-03-06T23:45:31.692Z,1.84
2023-03-06T23:49:44.395Z,1.85
2023-03-06T23:53:59.788Z,1.96
2023-03-06T23:58:12.902Z,2.01
